Time;durP1;ratioP1;P1;durP2;ratioP2;P2;SDS_P1;SDS_P2;PMS_P1;PMS_P2;Temp;Humidity;BMP_temperature;BMP_pressure;BME280_temperature;BME280_humidity;BME280_pressure;Samples;Min_cycle;Max_cycle;Signal;HPM_P1;HPM_P2
2023/02/28 00:00:00;;;;;;;;;;;;;;;;;;4974526;28;20358;-44
2023/02/28 00:02:26;;;;;;;;;;;;;;;;;;4975830;28;19912;-46
2023/02/28 00:05:00;;;;;;;;;;;;;;;;;;4970739;28;19906;-45
2023/02/28 00:07:26;;;;;;;;;;;;;;;;;;4976256;28;20386;-47
2023/02/28 00:09:52;;;;;;;;;;;;;;;;;;4965034;28;19978;-46
2023/02/28 00:12:18;;;;;;;;;;;;;;;;;;4975621;28;20095;-46
2023/02/28 00:14:44;;;;;;;;;;;;;;;;;;4959664;28;19922;-47
2023/02/28 00:17:10;;;;;;;;;;;;;;;;;;4956449;28;20378;-45
2023/02/28 00:19:36;;;;;;;;;;;;;;;;;;4962757;28;19910;-48
2023/02/28 00:22:02;;;;;;;;;;;;;;;;;;4970553;28;20351;-48
2023/02/28 00:24:27;;;;;;;;;;;;;;;;;;4965543;28;19907;-47
2023/02/28 00:26:53;;;;;;;;;;;;;;;;;;4965443;28;20033;-46
2023/02/28 00:29:19;;;;;;;;;;;;;;;;;;4969086;28;19913;-46
2023/02/28 00:31:45;;;;;;;;;;;;;;;;;;4968020;28;19906;-45
2023/02/28 00:34:11;;;;;;;;;;;;;;;;;;4958554;28;19910;-46
2023/02/28 00:36:37;;;;;;;;;;;;;;;;;;4967773;28;20005;-45
2023/02/28 00:39:03;;;;;;;;;;;;;;;;;;4971164;28;19910;-45
2023/02/28 00:41:29;;;;;;;;;;;;;;;;;;4960693;28;19961;-48
2023/02/28 00:43:55;;;;;;;;;;;;;;;;;;4962254;28;20009;-48
2023/02/28 00:46:21;;;;;;;;;;;;;;;;;;4968576;28;19932;-45
2023/02/28 00:48:47;;;;;;;;;;;;;;;;;;4972790;28;19910;-46
2023/02/28 00:51:13;;;;;;;;;;;;;;;;;;4961391;28;20401;-47
2023/02/28 00:53:38;;;;;;;;;;;;;;;;;;4964232;28;19906;-46
2023/02/28 00:56:04;;;;;;;;;;;;;;;;;;4970109;28;19933;-46
2023/02/28 00:58:30;;;;;;;;;;;;;;;;;;4962296;28;19960;-47
2023/02/28 01:00:56;;;;;;;;;;;;;;;;;;4963029;28;19909;-44
2023/02/28 01:03:22;;;;;;;;;;;;;;;;;;4960069;28;19906;-45
2023/02/28 01:05:48;;;;;;;;;;;;;;;;;;4971986;28;19906;-46
2023/02/28 01:08:14;;;;;;;;;;;;;;;;;;4966276;28;19913;-46
2023/02/28 01:10:40;;;;;;;;;;;;;;;;;;4965008;28;20367;-49
2023/02/28 01:13:06;;;;;;;;;;;;;;;;;;4970064;28;20005;-48
2023/02/28 01:15:32;;;;;;;;;;;;;;;;;;4971574;28;19918;-45
2023/02/28 01:17:57;;;;;;;;;;;;;;;;;;4965554;28;19929;-44
2023/02/28 01:20:23;;;;;;;;;;;;;;;;;;4964396;28;19910;-45
2023/02/28 01:22:49;;;;;;;;;;;;;;;;;;4958022;28;19914;-46
2023/02/28 01:25:15;;;;;;;;;;;;;;;;;;4953257;28;19913;-47
2023/02/28 01:27:41;;;;;;;;;;;;;;;;;;4954774;28;19906;-46
2023/02/28 01:30:07;;;;;;;;;;;;;;;;;;4953387;28;19910;-46
2023/02/28 01:32:33;;;;;;;;;;;;;;;;;;4955546;28;19914;-45
2023/02/28 01:34:59;;;;;;;;;;;;;;;;;;4955992;28;20407;-44
2023/02/28 01:37:24;;;;;;;;;;;;;;;;;;4954551;28;20012;-46
2023/02/28 01:39:50;;;;;;;;;;;;;;;;;;4955419;28;20283;-47
2023/02/28 01:42:16;;;;;;;;;;;;;;;;;;4968471;28;19986;-45
2023/02/28 01:44:42;;;;;;;;;;;;;;;;;;4955966;28;19912;-46
2023/02/28 01:47:08;;;;;;;;;;;;;;;;;;4951901;28;19934;-46
2023/02/28 01:49:34;;;;;;;;;;;;;;;;;;4953825;28;19953;-46
2023/02/28 01:52:00;;;;;;;;;;;;;;;;;;4952086;28;19911;-43
2023/02/28 01:54:26;;;;;;;;;;;;;;;;;;4954618;28;20005;-47
2023/02/28 01:56:52;;;;;;;;;;;;;;;;;;4955573;28;19944;-46
2023/02/28 01:59:17;;;;;;;;;;;;;;;;;;4952722;28;19913;-47
2023/02/28 02:01:43;;;;;;;;;;;;;;;;;;4954043;28;19914;-47
2023/02/28 02:04:09;;;;;;;;;;;;;;;;;;4953219;28;19961;-45
2023/02/28 02:06:35;;;;;;;;;;;;;;;;;;4955397;28;19906;-47
2023/02/28 02:09:01;;;;;;;;;;;;;;;;;;4955754;28;19907;-45
2023/02/28 02:11:29;;;;;;;;;;;;;;;;;;4954164;28;19961;-50
2023/02/28 02:13:55;;;;;;;;;;;;;;;;;;4959114;28;19925;-49
2023/02/28 02:16:21;;;;;;;;;;;;;;;;;;4970792;28;19922;-49
2023/02/28 02:18:47;;;;;;;;;;;;;;;;;;4974315;28;19957;-46
2023/02/28 02:21:13;;;;;;;;;;;;;;;;;;4970939;28;19914;-46
2023/02/28 02:23:38;;;;;;;;;;;;;;;;;;4971878;28;20428;-48
2023/02/28 02:26:04;;;;;;;;;;;;;;;;;;4970336;28;19913;-46
2023/02/28 02:28:30;;;;;;;;;;;;;;;;;;4971821;28;19913;-48
2023/02/28 02:30:56;;;;;;;;;;;;;;;;;;4971667;28;20004;-44
2023/02/28 02:33:22;;;;;;;;;;;;;;;;;;4971318;28;19906;-46
2023/02/28 02:35:48;;;;;;;;;;;;;;;;;;4971188;28;19918;-47
2023/02/28 02:38:14;;;;;;;;;;;;;;;;;;4970345;28;19916;-47
2023/02/28 02:40:39;;;;;;;;;;;;;;;;;;4969822;28;19915;-48
2023/02/28 02:43:05;;;;;;;;;;;;;;;;;;4971185;28;19906;-47
2023/02/28 02:45:35;;;;;;;;;;;;;;;;;;4968850;28;20059;-48
2023/02/28 02:48:01;;;;;;;;;;;;;;;;;;4972406;28;19916;-46
2023/02/28 02:50:27;;;;;;;;;;;;;;;;;;4971670;28;20326;-46
2023/02/28 02:52:53;;;;;;;;;;;;;;;;;;4972114;28;19909;-45
2023/02/28 02:55:19;;;;;;;;;;;;;;;;;;4970755;28;19912;-47
2023/02/28 02:57:45;;;;;;;;;;;;;;;;;;4971519;28;19956;-45
2023/02/28 03:00:10;;;;;;;;;;;;;;;;;;4971000;28;19914;-48
2023/02/28 03:02:36;;;;;;;;;;;;;;;;;;4971891;28;20275;-46
2023/02/28 03:05:02;;;;;;;;;;;;;;;;;;4968824;28;20009;-46
2023/02/28 03:07:28;;;;;;;;;;;;;;;;;;4971914;28;19938;-45
2023/02/28 03:09:54;;;;;;;;;;;;;;;;;;4971534;28;19906;-45
2023/02/28 03:12:20;;;;;;;;;;;;;;;;;;4971182;28;20521;-45
2023/02/28 03:14:46;;;;;;;;;;;;;;;;;;4972652;28;20014;-46
2023/02/28 03:17:12;;;;;;;;;;;;;;;;;;4970974;28;20282;-46
2023/02/28 03:19:38;;;;;;;;;;;;;;;;;;4971386;28;20001;-45
2023/02/28 03:22:04;;;;;;;;;;;;;;;;;;4969016;28;19910;-47
2023/02/28 03:24:30;;;;;;;;;;;;;;;;;;4970770;28;19910;-45
2023/02/28 03:26:55;;;;;;;;;;;;;;;;;;4971142;28;20387;-46
2023/02/28 03:29:21;;;;;;;;;;;;;;;;;;4970471;28;19906;-46
2023/02/28 03:31:47;;;;;;;;;;;;;;;;;;4975509;28;19906;-46
2023/02/28 03:34:13;;;;;;;;;;;;;;;;;;4974039;28;20000;-49
2023/02/28 03:36:43;;;;;;;;;;;;;;;;;;4975397;28;19957;-46
2023/02/28 03:39:09;;;;;;;;;;;;;;;;;;4973712;28;20005;-48
2023/02/28 03:41:35;;;;;;;;;;;;;;;;;;4975220;28;19989;-50
2023/02/28 03:44:01;;;;;;;;;;;;;;;;;;4974272;28;19980;-44
2023/02/28 03:46:27;;;;;;;;;;;;;;;;;;4975296;28;19910;-46
2023/02/28 03:48:52;;;;;;;;;;;;;;;;;;4975061;28;19996;-46
2023/02/28 03:51:18;;;;;;;;;;;;;;;;;;4974191;28;19983;-46
2023/02/28 03:53:44;;;;;;;;;;;;;;;;;;4974908;28;19917;-46
2023/02/28 03:56:10;;;;;;;;;;;;;;;;;;4973707;28;19925;-45
2023/02/28 03:58:36;;;;;;;;;;;;;;;;;;4974784;28;19924;-46
2023/02/28 04:01:07;;;;;;;;;;;;;;;;;;4973816;28;20003;-46
2023/02/28 04:03:33;;;;;;;;;;;;;;;;;;4974542;28;19914;-47
2023/02/28 04:05:59;;;;;;;;;;;;;;;;;;4974189;28;19913;-44
2023/02/28 04:08:25;;;;;;;;;;;;;;;;;;4974461;28;19913;-47
2023/02/28 04:10:51;;;;;;;;;;;;;;;;;;4974100;28;19988;-47
2023/02/28 04:13:17;;;;;;;;;;;;;;;;;;4972154;28;19910;-46
2023/02/28 04:15:43;;;;;;;;;;;;;;;;;;4955080;28;19920;-47
2023/02/28 04:18:08;;;;;;;;;;;;;;;;;;4955264;28;20351;-47
2023/02/28 04:20:34;;;;;;;;;;;;;;;;;;4969952;28;19906;-50
2023/02/28 04:23:00;;;;;;;;;;;;;;;;;;4971918;28;20000;-44
2023/02/28 04:25:26;;;;;;;;;;;;;;;;;;4957174;28;19911;-50
2023/02/28 04:27:52;;;;;;;;;;;;;;;;;;4958036;28;19918;-46
2023/02/28 04:30:18;;;;;;;;;;;;;;;;;;4954857;28;19991;-49
2023/02/28 04:32:44;;;;;;;;;;;;;;;;;;4957574;28;20005;-47
2023/02/28 04:35:09;;;;;;;;;;;;;;;;;;4955817;28;20382;-47
2023/02/28 04:37:36;;;;;;;;;;;;;;;;;;4960150;28;19914;-50
2023/02/28 04:40:02;;;;;;;;;;;;;;;;;;4951077;28;19910;-45
2023/02/28 04:42:35;;;;;;;;;;;;;;;;;;4956671;28;20005;-46
2023/02/28 04:45:01;;;;;;;;;;;;;;;;;;4955457;28;19961;-44
2023/02/28 04:47:26;;;;;;;;;;;;;;;;;;4959375;28;19959;-45
2023/02/28 04:49:52;;;;;;;;;;;;;;;;;;4954668;29;19915;-45
2023/02/28 04:52:18;;;;;;;;;;;;;;;;;;4955753;28;19933;-45
2023/02/28 04:54:44;;;;;;;;;;;;;;;;;;4954318;28;19951;-44
2023/02/28 04:57:10;;;;;;;;;;;;;;;;;;4955445;28;19961;-45
2023/02/28 04:59:36;;;;;;;;;;;;;;;;;;4956075;28;19954;-45
2023/02/28 05:02:06;;;;;;;;;;;;;;;;;;4959312;28;19906;-44
2023/02/28 05:04:33;;;;;;;;;;;;;;;;;;4957481;28;20045;-45
2023/02/28 05:06:59;;;;;;;;;;;;;;;;;;4955715;28;19907;-44
2023/02/28 05:09:25;;;;;;;;;;;;;;;;;;4957072;28;19953;-45
2023/02/28 05:11:51;;;;;;;;;;;;;;;;;;4956423;28;20402;-45
2023/02/28 05:14:17;;;;;;;;;;;;;;;;;;4961019;28;19925;-46
2023/02/28 05:16:43;;;;;;;;;;;;;;;;;;4971335;28;20017;-44
2023/02/28 05:19:09;;;;;;;;;;;;;;;;;;4972191;28;19913;-46
2023/02/28 05:21:34;;;;;;;;;;;;;;;;;;4973004;28;19909;-47
2023/02/28 05:24:00;;;;;;;;;;;;;;;;;;4972070;28;19945;-44
2023/02/28 05:26:26;;;;;;;;;;;;;;;;;;4973083;28;19917;-45
2023/02/28 05:28:52;;;;;;;;;;;;;;;;;;4973377;28;19918;-45
2023/02/28 05:31:18;;;;;;;;;;;;;;;;;;4971622;28;19929;-46
2023/02/28 05:33:44;;;;;;;;;;;;;;;;;;4973094;28;20410;-49
2023/02/28 05:36:10;;;;;;;;;;;;;;;;;;4971811;28;20005;-47
2023/02/28 05:38:36;;;;;;;;;;;;;;;;;;4973248;28;19906;-45
2023/02/28 05:41:01;;;;;;;;;;;;;;;;;;4971543;28;19910;-46
2023/02/28 05:43:27;;;;;;;;;;;;;;;;;;4972858;28;19956;-46
2023/02/28 05:45:53;;;;;;;;;;;;;;;;;;4971653;28;19968;-45
2023/02/28 05:48:19;;;;;;;;;;;;;;;;;;4972379;28;19941;-46
2023/02/28 05:50:45;;;;;;;;;;;;;;;;;;4972419;28;20379;-46
2023/02/28 05:53:11;;;;;;;;;;;;;;;;;;4971085;28;19913;-46
2023/02/28 05:55:37;;;;;;;;;;;;;;;;;;4973398;28;19972;-46
2023/02/28 05:58:03;;;;;;;;;;;;;;;;;;4972749;28;19906;-45
2023/02/28 06:00:29;;;;;;;;;;;;;;;;;;4973054;28;19913;-45
2023/02/28 06:02:57;;;;;;;;;;;;;;;;;;4973911;28;19906;-45
2023/02/28 06:05:23;;;;;;;;;;;;;;;;;;4973027;28;19906;-45
2023/02/28 06:07:49;;;;;;;;;;;;;;;;;;4969307;28;20041;-45
2023/02/28 06:10:15;;;;;;;;;;;;;;;;;;4972572;28;20383;-46
2023/02/28 06:12:44;;;;;;;;;;;;;;;;;;4974030;28;19933;-45
2023/02/28 06:15:11;;;;;;;;;;;;;;;;;;4977745;28;19925;-46
2023/02/28 06:17:37;;;;;;;;;;;;;;;;;;4973879;28;19925;-47
2023/02/28 06:20:03;;;;;;;;;;;;;;;;;;4972660;28;20244;-44
2023/02/28 06:22:28;;;;;;;;;;;;;;;;;;4974248;28;19906;-46
2023/02/28 06:24:54;;;;;;;;;;;;;;;;;;4973710;28;19953;-50
2023/02/28 06:27:21;;;;;;;;;;;;;;;;;;4973196;28;19902;-45
2023/02/28 06:29:47;;;;;;;;;;;;;;;;;;4964718;28;20371;-45
2023/02/28 06:32:13;;;;;;;;;;;;;;;;;;4976500;28;19914;-49
2023/02/28 06:34:39;;;;;;;;;;;;;;;;;;4973495;28;20063;-46
2023/02/28 06:37:05;;;;;;;;;;;;;;;;;;4972869;28;20013;-47
2023/02/28 06:39:31;;;;;;;;;;;;;;;;;;4973274;28;19914;-46
2023/02/28 06:41:57;;;;;;;;;;;;;;;;;;4973601;28;19910;-44
2023/02/28 06:44:23;;;;;;;;;;;;;;;;;;4972392;28;19906;-46
2023/02/28 06:46:48;;;;;;;;;;;;;;;;;;4971463;28;19993;-45
2023/02/28 06:49:14;;;;;;;;;;;;;;;;;;4976886;28;19913;-46
2023/02/28 06:51:41;;;;;;;;;;;;;;;;;;4952158;28;20707;-43
2023/02/28 06:54:09;;;;;;;;;;;;;;;;;;4951140;28;19911;-45
2023/02/28 06:56:35;;;;;;;;;;;;;;;;;;4971243;28;20431;-46
2023/02/28 06:59:01;;;;;;;;;;;;;;;;;;4971046;28;19997;-44
2023/02/28 07:01:27;;;;;;;;;;;;;;;;;;4975378;28;19973;-49
2023/02/28 07:03:53;;;;;;;;;;;;;;;;;;4972327;28;19910;-45
2023/02/28 07:06:19;;;;;;;;;;;;;;;;;;4971556;28;19902;-46
2023/02/28 07:08:45;;;;;;;;;;;;;;;;;;4972575;28;19909;-47
2023/02/28 07:11:11;;;;;;;;;;;;;;;;;;4971498;28;19906;-47
2023/02/28 07:13:37;;;;;;;;;;;;;;;;;;4972323;28;19925;-45
2023/02/28 07:16:04;;;;;;;;;;;;;;;;;;4967423;28;19922;-45
2023/02/28 07:18:30;;;;;;;;;;;;;;;;;;4973811;28;20343;-44
2023/02/28 07:20:56;;;;;;;;;;;;;;;;;;4972044;28;19920;-45
2023/02/28 07:23:22;;;;;;;;;;;;;;;;;;4967236;28;19933;-48
2023/02/28 07:25:48;;;;;;;;;;;;;;;;;;4971374;28;19910;-45
2023/02/28 07:28:14;;;;;;;;;;;;;;;;;;4971886;28;19916;-45
2023/02/28 07:30:40;;;;;;;;;;;;;;;;;;4972233;28;20043;-46
2023/02/28 07:33:06;;;;;;;;;;;;;;;;;;4973325;28;19949;-44
2023/02/28 07:35:32;;;;;;;;;;;;;;;;;;4969301;28;19966;-43
2023/02/28 07:37:58;;;;;;;;;;;;;;;;;;4970087;28;19988;-43
2023/02/28 07:40:23;;;;;;;;;;;;;;;;;;4969511;28;20311;-45
2023/02/28 07:42:49;;;;;;;;;;;;;;;;;;4972158;28;20409;-49
2023/02/28 07:45:15;;;;;;;;;;;;;;;;;;4971327;28;19961;-45
2023/02/28 07:47:41;;;;;;;;;;;;;;;;;;4972310;28;20259;-47
2023/02/28 07:50:07;;;;;;;;;;;;;;;;;;4971324;28;19906;-47
2023/02/28 07:52:33;;;;;;;;;;;;;;;;;;4972365;28;19960;-45
2023/02/28 07:54:59;;;;;;;;;;;;;;;;;;4970798;28;19992;-45
2023/02/28 07:57:25;;;;;;;;;;;;;;;;;;4971701;28;19918;-45
2023/02/28 07:59:51;;;;;;;;;;;;;;;;;;4970133;28;19945;-44
2023/02/28 08:02:17;;;;;;;;;;;;;;;;;;4970541;28;20021;-44
2023/02/28 08:04:42;;;;;;;;;;;;;;;;;;4970433;28;19910;-48
2023/02/28 08:07:12;;;;;;;;;;;;;;;;;;4971712;28;19906;-45
2023/02/28 08:09:38;;;;;;;;;;;;;;;;;;4971520;28;20005;-45
2023/02/28 08:12:04;;;;;;;;;;;;;;;;;;4971661;28;20375;-45
2023/02/28 08:14:30;;;;;;;;;;;;;;;;;;4971480;28;19918;-49
2023/02/28 08:16:56;;;;;;;;;;;;;;;;;;4974752;28;19933;-47
2023/02/28 08:19:22;;;;;;;;;;;;;;;;;;4974632;28;20013;-47
2023/02/28 08:21:48;;;;;;;;;;;;;;;;;;4975821;28;20537;-47
2023/02/28 08:24:13;;;;;;;;;;;;;;;;;;4974619;28;19906;-47
2023/02/28 08:26:39;;;;;;;;;;;;;;;;;;4975921;28;19906;-50
2023/02/28 08:29:05;;;;;;;;;;;;;;;;;;4974398;28;20377;-45
2023/02/28 08:31:31;;;;;;;;;;;;;;;;;;4973957;28;19910;-47
2023/02/28 08:33:58;;;;;;;;;;;;;;;;;;4974864;28;20344;-46
2023/02/28 08:36:24;;;;;;;;;;;;;;;;;;4974376;28;20442;-45
2023/02/28 08:38:50;;;;;;;;;;;;;;;;;;4975531;28;19997;-48
2023/02/28 08:41:16;;;;;;;;;;;;;;;;;;4974226;28;19914;-46
2023/02/28 08:43:42;;;;;;;;;;;;;;;;;;4974966;28;20021;-47
2023/02/28 08:46:08;;;;;;;;;;;;;;;;;;4974087;28;19906;-50
2023/02/28 08:48:34;;;;;;;;;;;;;;;;;;4975004;28;19960;-47
2023/02/28 08:51:00;;;;;;;;;;;;;;;;;;4973924;28;19906;-45
2023/02/28 08:53:25;;;;;;;;;;;;;;;;;;4974631;28;19910;-48
2023/02/28 08:55:51;;;;;;;;;;;;;;;;;;4974788;28;20282;-46
2023/02/28 08:58:17;;;;;;;;;;;;;;;;;;4969545;28;19962;-48
2023/02/28 09:00:43;;;;;;;;;;;;;;;;;;4974630;28;20355;-47
2023/02/28 09:03:09;;;;;;;;;;;;;;;;;;4974000;28;19906;-47
2023/02/28 09:05:35;;;;;;;;;;;;;;;;;;4972111;28;20004;-44
2023/02/28 09:08:01;;;;;;;;;;;;;;;;;;4972441;28;19991;-44
2023/02/28 09:10:26;;;;;;;;;;;;;;;;;;4974254;28;19914;-47
2023/02/28 09:12:52;;;;;;;;;;;;;;;;;;4974917;28;19938;-47
2023/02/28 09:15:18;;;;;;;;;;;;;;;;;;4972662;28;19918;-46
2023/02/28 09:17:44;;;;;;;;;;;;;;;;;;4974845;28;19918;-46
2023/02/28 09:20:10;;;;;;;;;;;;;;;;;;4972724;28;19988;-47
2023/02/28 09:22:36;;;;;;;;;;;;;;;;;;4974716;28;19910;-46
2023/02/28 09:25:02;;;;;;;;;;;;;;;;;;4972500;28;19909;-50
2023/02/28 09:27:28;;;;;;;;;;;;;;;;;;4974640;28;19921;-48
2023/02/28 09:29:54;;;;;;;;;;;;;;;;;;4973964;28;19906;-47
2023/02/28 09:32:19;;;;;;;;;;;;;;;;;;4973156;28;19992;-49
2023/02/28 09:34:45;;;;;;;;;;;;;;;;;;4973329;28;19961;-46
2023/02/28 09:37:11;;;;;;;;;;;;;;;;;;4973235;28;19914;-47
2023/02/28 09:39:37;;;;;;;;;;;;;;;;;;4973961;28;19910;-50
2023/02/28 09:42:03;;;;;;;;;;;;;;;;;;4973282;28;19913;-51
2023/02/28 09:44:29;;;;;;;;;;;;;;;;;;4973176;28;20001;-46
2023/02/28 09:46:55;;;;;;;;;;;;;;;;;;4974138;28;19906;-46
2023/02/28 09:49:21;;;;;;;;;;;;;;;;;;4972648;28;20008;-50
2023/02/28 09:51:48;;;;;;;;;;;;;;;;;;4973738;28;19917;-47
2023/02/28 09:54:18;;;;;;;;;;;;;;;;;;4972038;28;19917;-46
2023/02/28 09:56:44;;;;;;;;;;;;;;;;;;4974014;28;19922;-48
2023/02/28 09:59:10;;;;;;;;;;;;;;;;;;4965171;28;19922;-46
2023/02/28 10:01:36;;;;;;;;;;;;;;;;;;4970826;28;19909;-47
2023/02/28 10:04:02;;;;;;;;;;;;;;;;;;4972513;28;19906;-45
2023/02/28 10:06:28;;;;;;;;;;;;;;;;;;4973815;28;19906;-47
2023/02/28 10:08:54;;;;;;;;;;;;;;;;;;4970924;28;20009;-47
2023/02/28 10:11:20;;;;;;;;;;;;;;;;;;4969273;28;19933;-47
2023/02/28 10:13:46;;;;;;;;;;;;;;;;;;4972270;28;20350;-46
2023/02/28 10:16:12;;;;;;;;;;;;;;;;;;4972168;28;19913;-47
2023/02/28 10:18:38;;;;;;;;;;;;;;;;;;4973129;28;19906;-46
2023/02/28 10:21:04;;;;;;;;;;;;;;;;;;4972268;28;20347;-48
2023/02/28 10:23:30;;;;;;;;;;;;;;;;;;4972689;28;20409;-45
2023/02/28 10:25:55;;;;;;;;;;;;;;;;;;4973023;28;19909;-46
2023/02/28 10:28:21;;;;;;;;;;;;;;;;;;4972578;28;19914;-47
2023/02/28 10:30:47;;;;;;;;;;;;;;;;;;4972716;28;19910;-48
2023/02/28 10:33:13;;;;;;;;;;;;;;;;;;4972277;28;19910;-48
2023/02/28 10:35:39;;;;;;;;;;;;;;;;;;4972272;28;19906;-46
2023/02/28 10:38:05;;;;;;;;;;;;;;;;;;4971956;28;19945;-47
2023/02/28 10:40:31;;;;;;;;;;;;;;;;;;4972649;28;19910;-48
2023/02/28 10:42:57;;;;;;;;;;;;;;;;;;4973017;28;19906;-47
2023/02/28 10:45:23;;;;;;;;;;;;;;;;;;4971928;28;19906;-44
2023/02/28 10:47:49;;;;;;;;;;;;;;;;;;4973097;28;19906;-47
2023/02/28 10:50:14;;;;;;;;;;;;;;;;;;4971806;28;19913;-47
2023/02/28 10:52:40;;;;;;;;;;;;;;;;;;4972893;28;19906;-45
2023/02/28 10:55:06;;;;;;;;;;;;;;;;;;4969543;28;20040;-45
2023/02/28 10:57:32;;;;;;;;;;;;;;;;;;4972330;28;20003;-46
2023/02/28 10:59:58;;;;;;;;;;;;;;;;;;4972052;28;19906;-45
2023/02/28 11:02:24;;;;;;;;;;;;;;;;;;4972524;28;20346;-47
2023/02/28 11:04:50;;;;;;;;;;;;;;;;;;4970892;28;19989;-46
2023/02/28 11:07:16;;;;;;;;;;;;;;;;;;4971318;28;20453;-46
2023/02/28 11:09:44;;;;;;;;;;;;;;;;;;4971634;28;19921;-45
2023/02/28 11:12:09;;;;;;;;;;;;;;;;;;4972102;28;20357;-46
2023/02/28 11:14:35;;;;;;;;;;;;;;;;;;4962044;28;19985;-45
2023/02/28 11:17:01;;;;;;;;;;;;;;;;;;4953475;28;19941;-44
2023/02/28 11:19:27;;;;;;;;;;;;;;;;;;4972541;28;19961;-45
2023/02/28 11:21:53;;;;;;;;;;;;;;;;;;4964334;28;19913;-47
2023/02/28 11:24:19;;;;;;;;;;;;;;;;;;4971910;28;20425;-46
2023/02/28 11:26:45;;;;;;;;;;;;;;;;;;4964535;28;19993;-45
2023/02/28 11:29:11;;;;;;;;;;;;;;;;;;4971612;28;19910;-47
2023/02/28 11:31:36;;;;;;;;;;;;;;;;;;4973085;28;19965;-46
2023/02/28 11:34:02;;;;;;;;;;;;;;;;;;4962889;28;19964;-43
2023/02/28 11:36:28;;;;;;;;;;;;;;;;;;4973159;28;19921;-48
2023/02/28 11:38:54;;;;;;;;;;;;;;;;;;4969680;28;19913;-46
2023/02/28 11:41:20;;;;;;;;;;;;;;;;;;4969400;28;19906;-50
2023/02/28 11:43:46;;;;;;;;;;;;;;;;;;4973229;28;20000;-45
2023/02/28 11:46:12;;;;;;;;;;;;;;;;;;4971767;28;19906;-46
2023/02/28 11:48:38;;;;;;;;;;;;;;;;;;4969392;28;19909;-46
2023/02/28 11:51:03;;;;;;;;;;;;;;;;;;4950514;28;20370;-46
2023/02/28 11:53:29;;;;;;;;;;;;;;;;;;4972344;28;19934;-46
2023/02/28 11:55:55;;;;;;;;;;;;;;;;;;4976247;28;19920;-48
2023/02/28 11:58:21;;;;;;;;;;;;;;;;;;4973788;28;20801;-47
2023/02/28 12:00:47;;;;;;;;;;;;;;;;;;4974461;28;20271;-48
2023/02/28 12:03:13;;;;;;;;;;;;;;;;;;4976178;28;19905;-46
2023/02/28 12:05:39;;;;;;;;;;;;;;;;;;4975851;28;19907;-51
2023/02/28 12:08:05;;;;;;;;;;;;;;;;;;4962523;28;19911;-50
2023/02/28 12:10:31;;;;;;;;;;;;;;;;;;4974292;28;19917;-47
2023/02/28 12:12:57;;;;;;;;;;;;;;;;;;4976350;28;19916;-48
2023/02/28 12:15:23;;;;;;;;;;;;;;;;;;4974892;28;19918;-47
2023/02/28 12:17:49;;;;;;;;;;;;;;;;;;4975782;28;19914;-49
2023/02/28 12:20:14;;;;;;;;;;;;;;;;;;4975145;28;19989;-45
2023/02/28 12:22:40;;;;;;;;;;;;;;;;;;4976395;28;19973;-46
2023/02/28 12:25:06;;;;;;;;;;;;;;;;;;4968462;28;19918;-46
2023/02/28 12:27:32;;;;;;;;;;;;;;;;;;4973158;28;19910;-45
2023/02/28 12:29:58;;;;;;;;;;;;;;;;;;4975530;28;19906;-45
2023/02/28 12:32:24;;;;;;;;;;;;;;;;;;4975525;28;19913;-45
2023/02/28 12:34:50;;;;;;;;;;;;;;;;;;4975934;28;19906;-46
2023/02/28 12:37:16;;;;;;;;;;;;;;;;;;4975139;28;19922;-46
2023/02/28 12:39:43;;;;;;;;;;;;;;;;;;4975293;28;19952;-45
2023/02/28 12:42:09;;;;;;;;;;;;;;;;;;4962567;28;19910;-45
2023/02/28 12:44:35;;;;;;;;;;;;;;;;;;4975254;28;19960;-48
2023/02/28 12:47:01;;;;;;;;;;;;;;;;;;4959671;28;19969;-45
2023/02/28 12:49:27;;;;;;;;;;;;;;;;;;4958298;28;19910;-46
2023/02/28 12:51:52;;;;;;;;;;;;;;;;;;4976077;28;19910;-45
2023/02/28 12:54:18;;;;;;;;;;;;;;;;;;4967720;28;19903;-46
2023/02/28 12:56:44;;;;;;;;;;;;;;;;;;4948268;28;20290;-47
2023/02/28 12:59:10;;;;;;;;;;;;;;;;;;4962228;28;19913;-48
2023/02/28 13:01:36;;;;;;;;;;;;;;;;;;4962546;28;20354;-49
2023/02/28 13:04:02;;;;;;;;;;;;;;;;;;4967930;28;19906;-45
2023/02/28 13:06:28;;;;;;;;;;;;;;;;;;4958080;28;20291;-47
2023/02/28 13:08:54;;;;;;;;;;;;;;;;;;4965192;28;19906;-47
2023/02/28 13:11:19;;;;;;;;;;;;;;;;;;4969611;28;19913;-49
2023/02/28 13:13:45;;;;;;;;;;;;;;;;;;4972431;28;19922;-47
2023/02/28 13:16:11;;;;;;;;;;;;;;;;;;4973505;28;20486;-51
2023/02/28 13:18:39;;;;;;;;;;;;;;;;;;4974607;28;19914;-49
2023/02/28 13:21:05;;;;;;;;;;;;;;;;;;4973439;28;19910;-49
2023/02/28 13:23:31;;;;;;;;;;;;;;;;;;4974498;28;19913;-47
2023/02/28 13:25:59;;;;;;;;;;;;;;;;;;4973648;28;19997;-47
2023/02/28 13:28:24;;;;;;;;;;;;;;;;;;4974164;28;19929;-52
2023/02/28 13:30:55;;;;;;;;;;;;;;;;;;4974176;28;19906;-48
2023/02/28 13:33:21;;;;;;;;;;;;;;;;;;4973632;28;19902;-48
2023/02/28 13:35:47;;;;;;;;;;;;;;;;;;4973903;28;19906;-49
2023/02/28 13:38:12;;;;;;;;;;;;;;;;;;4973359;28;20433;-47
2023/02/28 13:40:38;;;;;;;;;;;;;;;;;;4978650;28;19913;-49
2023/02/28 13:43:04;;;;;;;;;;;;;;;;;;4973421;28;20001;-46
2023/02/28 13:45:30;;;;;;;;;;;;;;;;;;4973752;28;19954;-47
2023/02/28 13:47:56;;;;;;;;;;;;;;;;;;4973632;28;19910;-48
2023/02/28 13:50:22;;;;;;;;;;;;;;;;;;4972697;28;19917;-51
2023/02/28 13:52:48;;;;;;;;;;;;;;;;;;4974171;28;19906;-46
2023/02/28 13:55:15;;;;;;;;;;;;;;;;;;4972338;28;19906;-47
2023/02/28 13:57:41;;;;;;;;;;;;;;;;;;4973431;28;19921;-46
2023/02/28 14:00:08;;;;;;;;;;;;;;;;;;4971300;28;20275;-48
2023/02/28 14:02:33;;;;;;;;;;;;;;;;;;4973539;28;19910;-49
2023/02/28 14:05:00;;;;;;;;;;;;;;;;;;4972436;28;19960;-46
2023/02/28 14:07:26;;;;;;;;;;;;;;;;;;4973500;28;19990;-46
2023/02/28 14:09:52;;;;;;;;;;;;;;;;;;4973156;28;19945;-47
2023/02/28 14:12:17;;;;;;;;;;;;;;;;;;4972744;28;19912;-47
2023/02/28 14:14:43;;;;;;;;;;;;;;;;;;4971647;28;20057;-44
2023/02/28 14:17:09;;;;;;;;;;;;;;;;;;4973013;28;20359;-46
2023/02/28 14:19:35;;;;;;;;;;;;;;;;;;4973327;28;19906;-45
2023/02/28 14:22:01;;;;;;;;;;;;;;;;;;4971949;28;20292;-44
2023/02/28 14:24:27;;;;;;;;;;;;;;;;;;4972231;28;19906;-46
2023/02/28 14:26:53;;;;;;;;;;;;;;;;;;4973500;28;19907;-46
2023/02/28 14:29:19;;;;;;;;;;;;;;;;;;4971921;28;20703;-47
2023/02/28 14:31:45;;;;;;;;;;;;;;;;;;4973248;28;19906;-47
2023/02/28 14:34:11;;;;;;;;;;;;;;;;;;4972223;28;20267;-46
2023/02/28 14:36:37;;;;;;;;;;;;;;;;;;4973509;28;19914;-46
2023/02/28 14:39:03;;;;;;;;;;;;;;;;;;4971795;28;19993;-45
2023/02/28 14:41:29;;;;;;;;;;;;;;;;;;4978339;28;19951;-45
2023/02/28 14:43:55;;;;;;;;;;;;;;;;;;4973202;28;20240;-47
2023/02/28 14:46:21;;;;;;;;;;;;;;;;;;4972014;28;19916;-46
2023/02/28 14:48:47;;;;;;;;;;;;;;;;;;4972553;28;19910;-46
2023/02/28 14:51:12;;;;;;;;;;;;;;;;;;4971898;28;20318;-45
2023/02/28 14:53:38;;;;;;;;;;;;;;;;;;4972676;28;19913;-46
2023/02/28 14:56:04;;;;;;;;;;;;;;;;;;4969912;28;20397;-46
2023/02/28 14:58:30;;;;;;;;;;;;;;;;;;4972395;28;19910;-47
2023/02/28 15:00:56;;;;;;;;;;;;;;;;;;4973035;28;19913;-46
2023/02/28 15:03:22;;;;;;;;;;;;;;;;;;4972134;28;19906;-45
2023/02/28 15:05:48;;;;;;;;;;;;;;;;;;4972098;28;19913;-45
2023/02/28 15:08:14;;;;;;;;;;;;;;;;;;4971654;28;19921;-44
2023/02/28 15:10:40;;;;;;;;;;;;;;;;;;4972966;28;19906;-50
2023/02/28 15:13:06;;;;;;;;;;;;;;;;;;4971781;28;19910;-49
2023/02/28 15:15:32;;;;;;;;;;;;;;;;;;4969188;28;20013;-49
2023/02/28 15:17:57;;;;;;;;;;;;;;;;;;4956496;28;20053;-44
2023/02/28 15:20:23;;;;;;;;;;;;;;;;;;4959013;28;19906;-49
2023/02/28 15:22:49;;;;;;;;;;;;;;;;;;4967892;28;19906;-46
2023/02/28 15:25:15;;;;;;;;;;;;;;;;;;4971487;28;19912;-47
2023/02/28 15:27:41;;;;;;;;;;;;;;;;;;4962872;28;19910;-45
2023/02/28 15:30:07;;;;;;;;;;;;;;;;;;4965141;28;19932;-47
2023/02/28 15:32:33;;;;;;;;;;;;;;;;;;4975205;28;19941;-51
2023/02/28 15:34:59;;;;;;;;;;;;;;;;;;4965440;28;20291;-45
2023/02/28 15:37:25;;;;;;;;;;;;;;;;;;4967358;28;19914;-47
2023/02/28 15:39:51;;;;;;;;;;;;;;;;;;4966245;28;19906;-47
2023/02/28 15:42:16;;;;;;;;;;;;;;;;;;4970676;28;19907;-48
2023/02/28 15:44:42;;;;;;;;;;;;;;;;;;4960693;28;20009;-49
2023/02/28 15:47:09;;;;;;;;;;;;;;;;;;4968169;28;19906;-49
2023/02/28 15:49:35;;;;;;;;;;;;;;;;;;4973056;28;19906;-48
2023/02/28 15:52:01;;;;;;;;;;;;;;;;;;4972710;28;19922;-45
2023/02/28 15:54:27;;;;;;;;;;;;;;;;;;4962677;28;19907;-47
2023/02/28 15:56:53;;;;;;;;;;;;;;;;;;4970711;28;19914;-48
2023/02/28 15:59:19;;;;;;;;;;;;;;;;;;4957600;28;19937;-46
2023/02/28 16:01:45;;;;;;;;;;;;;;;;;;4963626;28;20383;-47
2023/02/28 16:04:11;;;;;;;;;;;;;;;;;;4963447;28;19938;-46
2023/02/28 16:06:37;;;;;;;;;;;;;;;;;;4972371;28;19907;-49
2023/02/28 16:09:03;;;;;;;;;;;;;;;;;;4963704;28;19910;-45
2023/02/28 16:11:28;;;;;;;;;;;;;;;;;;4964233;28;19906;-50
2023/02/28 16:13:54;;;;;;;;;;;;;;;;;;4964488;28;20267;-46
2023/02/28 16:16:20;;;;;;;;;;;;;;;;;;4973420;28;20090;-46
2023/02/28 16:18:46;;;;;;;;;;;;;;;;;;4967396;28;19911;-47
2023/02/28 16:21:12;;;;;;;;;;;;;;;;;;4965986;28;19988;-46
2023/02/28 16:23:38;;;;;;;;;;;;;;;;;;4971550;28;19912;-46
2023/02/28 16:26:04;;;;;;;;;;;;;;;;;;4965265;28;19914;-46
2023/02/28 16:28:32;;;;;;;;;;;;;;;;;;4961330;28;19907;-46
2023/02/28 16:30:58;;;;;;;;;;;;;;;;;;4967197;28;20382;-46
2023/02/28 16:33:24;;;;;;;;;;;;;;;;;;4972221;28;19912;-47
2023/02/28 16:35:50;;;;;;;;;;;;;;;;;;4960592;28;20455;-49